createdAt,value
2022-08-12T00:00:57.520Z,19.45
2022-08-12T00:02:03.198Z,19.45
2022-08-12T00:02:58.560Z,19.47
2022-08-12T00:03:57.485Z,19.46
2022-08-12T00:04:57.472Z,19.46
2022-08-12T00:06:04.665Z,19.49
2022-08-12T00:06:58.473Z,19.43
2022-08-12T00:07:57.437Z,19.46
2022-08-12T00:08:57.517Z,19.38
2022-08-12T00:09:57.416Z,19.31
2022-08-12T00:10:57.405Z,19.28
2022-08-12T00:11:57.392Z,19.32
2022-08-12T00:12:57.382Z,19.32
2022-08-12T00:13:57.373Z,19.25
2022-08-12T00:14:57.362Z,19.17
2022-08-12T00:15:57.351Z,19.25
2022-08-12T00:16:57.345Z,19.25
2022-08-12T00:17:57.328Z,19.20
2022-08-12T00:18:57.320Z,19.16
2022-08-12T00:19:57.308Z,19.07
2022-08-12T00:20:57.298Z,19.06
2022-08-12T00:21:57.286Z,19.09
2022-08-12T00:22:59.565Z,19.05
2022-08-12T00:23:57.314Z,18.99
2022-08-12T00:24:57.258Z,19.02
2022-08-12T00:26:21.474Z,18.94
2022-08-12T00:26:57.233Z,19.01
2022-08-12T00:27:57.222Z,18.91
2022-08-12T00:28:57.213Z,18.96
2022-08-12T00:29:57.220Z,19.01
2022-08-12T00:30:57.196Z,18.93
2022-08-12T00:31:57.178Z,18.96
2022-08-12T00:32:57.382Z,18.96
2022-08-12T00:33:57.157Z,18.91
2022-08-12T00:34:57.147Z,18.93
2022-08-12T00:35:57.135Z,18.87
2022-08-12T00:37:00.945Z,18.90
2022-08-12T00:37:58.140Z,18.84
2022-08-12T00:38:57.103Z,18.86
2022-08-12T00:39:57.175Z,18.82
2022-08-12T00:40:57.084Z,18.75
2022-08-12T00:41:57.071Z,18.68
2022-08-12T00:42:57.062Z,18.57
2022-08-12T00:43:57.049Z,18.59
2022-08-12T00:44:57.040Z,18.60
2022-08-12T00:45:57.025Z,18.51
2022-08-12T00:46:57.015Z,18.53
2022-08-12T00:47:57.004Z,18.62
2022-08-12T00:48:57.010Z,18.56
2022-08-12T00:49:56.982Z,18.49
2022-08-12T00:50:56.975Z,18.59
2022-08-12T00:51:56.960Z,18.60
2022-08-12T00:52:56.950Z,18.60
2022-08-12T00:53:56.938Z,18.51
2022-08-12T00:54:57.357Z,18.51
2022-08-12T00:55:56.914Z,18.54
2022-08-12T00:56:56.906Z,18.50
2022-08-12T00:57:56.894Z,18.49
2022-08-12T00:58:56.883Z,18.47
2022-08-12T00:59:56.870Z,18.36
2022-08-12T01:00:56.905Z,18.39
2022-08-12T01:02:02.058Z,18.35
2022-08-12T01:02:57.863Z,18.31
2022-08-12T01:03:56.827Z,18.26
2022-08-12T01:04:56.816Z,18.26
2022-08-12T01:05:56.803Z,18.29
2022-08-12T01:06:56.795Z,18.26
2022-08-12T01:07:56.783Z,18.21
2022-08-12T01:08:56.770Z,18.26
2022-08-12T01:09:56.763Z,18.25
2022-08-12T01:10:56.749Z,18.23
2022-08-12T01:11:56.736Z,18.31
2022-08-12T01:13:18.336Z,18.28
2022-08-12T01:13:56.713Z,18.20
2022-08-12T01:14:56.705Z,18.29
2022-08-12T01:15:56.690Z,18.29
2022-08-12T01:16:56.683Z,18.26
2022-08-12T01:17:56.675Z,18.16
2022-08-12T01:18:56.664Z,18.16
2022-08-12T01:19:56.648Z,18.20
2022-08-12T01:20:56.635Z,18.17
2022-08-12T01:21:56.623Z,18.13
2022-08-12T01:22:56.614Z,18.02
2022-08-12T01:23:56.602Z,18.05
2022-08-12T01:24:56.590Z,17.98
2022-08-12T01:25:56.673Z,17.96
2022-08-12T01:26:56.568Z,17.94
2022-08-12T01:27:56.558Z,17.99
2022-08-12T01:28:57.034Z,17.86
2022-08-12T01:29:56.532Z,17.89
2022-08-12T01:30:56.523Z,17.84
2022-08-12T01:31:56.513Z,17.92
2022-08-12T01:32:56.499Z,17.96
2022-08-12T01:33:56.490Z,17.95
2022-08-12T01:34:56.478Z,17.94
2022-08-12T01:36:07.895Z,17.84
2022-08-12T01:36:56.455Z,17.86
2022-08-12T01:37:56.442Z,17.86
2022-08-12T01:38:56.434Z,17.86
2022-08-12T01:40:35.011Z,17.81
2022-08-12T01:40:57.530Z,17.81
2022-08-12T01:41:56.399Z,17.76
2022-08-12T01:42:56.390Z,17.76
2022-08-12T01:43:56.377Z,17.76
2022-08-12T01:44:56.365Z,17.68
2022-08-12T01:45:57.702Z,17.71
2022-08-12T01:46:56.343Z,17.73
2022-08-12T01:47:56.333Z,17.71
2022-08-12T01:48:56.323Z,17.66
2022-08-12T01:49:56.309Z,17.76
2022-08-12T01:51:00.356Z,17.70
2022-08-12T01:52:21.188Z,17.70
2022-08-12T01:52:56.277Z,17.66
2022-08-12T01:53:56.272Z,17.66
2022-08-12T01:54:56.256Z,17.58
2022-08-12T01:55:56.243Z,17.62
2022-08-12T01:56:56.235Z,17.62
2022-08-12T01:57:59.776Z,17.71
2022-08-12T01:58:56.210Z,17.70
2022-08-12T01:59:56.197Z,17.62
2022-08-12T02:00:56.401Z,17.58
2022-08-12T02:01:56.297Z,17.60
2022-08-12T02:02:56.177Z,17.63
2022-08-12T02:03:56.159Z,17.65
2022-08-12T02:04:56.143Z,17.57
2022-08-12T02:05:56.130Z,17.54
2022-08-12T02:06:56.126Z,17.55
2022-08-12T02:07:56.107Z,17.53
2022-08-12T02:08:56.100Z,17.51
2022-08-12T02:09:56.086Z,17.53
2022-08-12T02:10:56.075Z,17.47
2022-08-12T02:11:56.063Z,17.49
2022-08-12T02:12:56.056Z,17.46
2022-08-12T02:13:56.046Z,17.49
2022-08-12T02:14:56.031Z,17.49
2022-08-12T02:15:56.017Z,17.49
2022-08-12T02:16:56.013Z,17.46
2022-08-12T02:17:56.930Z,17.39
2022-08-12T02:18:55.986Z,17.35
2022-08-12T02:19:55.981Z,17.35
2022-08-12T02:20:55.965Z,17.30
2022-08-12T02:21:55.952Z,17.25
2022-08-12T02:22:55.943Z,17.20
2022-08-12T02:23:55.933Z,17.18
2022-08-12T02:24:55.919Z,17.09
2022-08-12T02:25:55.909Z,17.10
2022-08-12T02:26:55.898Z,17.20
2022-08-12T02:27:55.885Z,17.24
2022-08-12T02:28:55.877Z,17.21
2022-08-12T02:29:55.862Z,17.22
2022-08-12T02:30:55.855Z,17.25
2022-08-12T02:31:55.843Z,17.20
2022-08-12T02:32:56.320Z,17.18
2022-08-12T02:33:55.820Z,17.15
2022-08-12T02:34:55.815Z,17.17
2022-08-12T02:35:55.800Z,17.18
2022-08-12T02:36:55.790Z,17.18
2022-08-12T02:37:55.778Z,17.22
2022-08-12T02:38:55.765Z,17.20
2022-08-12T02:39:55.864Z,17.17
2022-08-12T02:40:55.749Z,17.17
2022-08-12T02:41:55.732Z,17.18
2022-08-12T02:42:55.722Z,17.17
2022-08-12T02:43:55.707Z,17.06
2022-08-12T02:44:55.701Z,17.05
2022-08-12T02:45:55.686Z,17.02
2022-08-12T02:46:55.677Z,17.02
2022-08-12T02:48:00.903Z,17.02
2022-08-12T02:48:55.658Z,17.03
2022-08-12T02:49:55.645Z,17.02
2022-08-12T02:50:55.633Z,17.00
2022-08-12T02:51:55.618Z,16.92
2022-08-12T02:52:55.611Z,16.84
2022-08-12T02:54:03.262Z,16.84
2022-08-12T02:54:55.586Z,16.92
2022-08-12T02:55:55.578Z,16.95
2022-08-12T02:56:55.569Z,16.84
2022-08-12T02:57:55.553Z,16.87
2022-08-12T02:58:55.552Z,17.00
2022-08-12T02:59:55.534Z,17.00
2022-08-12T03:00:55.559Z,17.02
2022-08-12T03:01:55.508Z,16.96
2022-08-12T03:02:55.498Z,16.96
2022-08-12T03:03:55.486Z,16.88
2022-08-12T03:04:55.475Z,16.90
2022-08-12T03:05:55.466Z,16.91
2022-08-12T03:06:55.452Z,16.88
2022-08-12T03:07:59.126Z,16.77
2022-08-12T03:08:55.429Z,16.78
2022-08-12T03:10:04.249Z,16.80
2022-08-12T03:10:55.408Z,16.78
2022-08-12T03:11:55.394Z,16.82
2022-08-12T03:12:55.383Z,16.80
2022-08-12T03:13:55.374Z,16.78
2022-08-12T03:14:55.362Z,16.73
2022-08-12T03:15:55.352Z,16.69
2022-08-12T03:16:55.338Z,16.77
2022-08-12T03:18:25.756Z,16.75
2022-08-12T03:18:56.341Z,16.78
2022-08-12T03:20:09.409Z,16.72
2022-08-12T03:20:55.294Z,16.72
2022-08-12T03:22:08.639Z,16.72
2022-08-12T03:22:55.268Z,16.70
2022-08-12T03:23:55.259Z,16.73
2022-08-12T03:24:55.249Z,16.67
2022-08-12T03:25:55.240Z,16.69
2022-08-12T03:26:55.225Z,16.70
2022-08-12T03:27:55.216Z,16.66
2022-08-12T03:28:55.205Z,16.69
2022-08-12T03:29:55.192Z,16.57
2022-08-12T03:30:56.848Z,16.54
2022-08-12T03:31:55.167Z,16.60
2022-08-12T03:32:55.155Z,16.55
2022-08-12T03:34:00.511Z,16.57
2022-08-12T03:34:55.131Z,16.57
2022-08-12T03:35:55.125Z,16.52
2022-08-12T03:36:55.307Z,16.50
2022-08-12T03:37:55.097Z,16.54
2022-08-12T03:38:55.085Z,16.50
2022-08-12T03:39:55.172Z,16.51
2022-08-12T03:40:55.060Z,16.50
2022-08-12T03:41:55.054Z,16.42
2022-08-12T03:42:55.041Z,16.41
2022-08-12T03:43:55.029Z,16.40
2022-08-12T03:44:55.017Z,16.33
2022-08-12T03:45:55.005Z,16.34
2022-08-12T03:46:54.995Z,16.25
2022-08-12T03:47:54.984Z,16.27
2022-08-12T03:48:54.968Z,16.23
2022-08-12T03:49:54.964Z,16.18
2022-08-12T03:50:54.947Z,16.16
2022-08-12T03:51:54.935Z,16.17
2022-08-12T03:52:54.922Z,16.08
2022-08-12T03:53:54.914Z,16.07
2022-08-12T03:54:54.899Z,16.01
2022-08-12T03:55:54.889Z,15.98
2022-08-12T03:56:54.908Z,15.99
2022-08-12T03:57:54.877Z,15.99
2022-08-12T03:58:54.884Z,15.96
2022-08-12T03:59:54.961Z,15.99
2022-08-12T04:00:55.032Z,15.95
2022-08-12T04:01:54.926Z,15.93
2022-08-12T04:02:54.957Z,15.98
2022-08-12T04:03:54.844Z,15.96
2022-08-12T04:04:54.786Z,15.98
2022-08-12T04:05:56.381Z,15.98
2022-08-12T04:06:54.763Z,15.95
2022-08-12T04:07:58.370Z,16.03
2022-08-12T04:08:54.748Z,15.96
2022-08-12T04:09:54.736Z,15.96
2022-08-12T04:10:54.720Z,15.98
2022-08-12T04:11:54.711Z,15.91
2022-08-12T04:12:54.702Z,15.89
2022-08-12T04:13:54.690Z,15.95
2022-08-12T04:14:54.677Z,15.96
2022-08-12T04:15:54.673Z,16.01
2022-08-12T04:16:54.656Z,15.98
2022-08-12T04:18:06.627Z,15.99
2022-08-12T04:18:54.633Z,16.01
2022-08-12T04:19:54.726Z,15.96
2022-08-12T04:20:54.617Z,15.99
2022-08-12T04:22:01.989Z,15.99
2022-08-12T04:22:54.589Z,15.95
2022-08-12T04:23:54.581Z,15.92
2022-08-12T04:24:54.572Z,15.89
2022-08-12T04:25:54.559Z,15.86
2022-08-12T04:26:54.546Z,15.95
2022-08-12T04:27:54.538Z,15.92
2022-08-12T04:28:54.528Z,15.96
2022-08-12T04:30:30.842Z,15.96
2022-08-12T04:30:54.503Z,15.95
2022-08-12T04:31:54.495Z,15.95
2022-08-12T04:32:54.481Z,15.98
2022-08-12T04:33:54.512Z,16.04
2022-08-12T04:34:54.459Z,16.08
2022-08-12T04:35:54.449Z,16.08
2022-08-12T04:36:54.439Z,16.08
2022-08-12T04:37:58.983Z,16.07
2022-08-12T04:38:59.525Z,16.13
2022-08-12T04:39:54.551Z,16.11
2022-08-12T04:40:54.394Z,16.10
2022-08-12T04:41:58.546Z,16.13
2022-08-12T04:42:54.377Z,16.13
2022-08-12T04:44:02.263Z,16.17
2022-08-12T04:44:55.374Z,16.16
2022-08-12T04:45:54.345Z,16.13
2022-08-12T04:46:54.326Z,16.13
2022-08-12T04:47:54.317Z,16.18
2022-08-12T04:48:54.306Z,16.14
2022-08-12T04:49:54.297Z,16.17
2022-08-12T04:50:54.280Z,16.18
2022-08-12T04:51:59.058Z,16.25
2022-08-12T04:52:54.258Z,16.27
2022-08-12T04:53:54.258Z,16.29
2022-08-12T04:54:54.238Z,16.36
2022-08-12T04:55:54.237Z,16.37
2022-08-12T04:57:03.701Z,16.33
2022-08-12T04:57:54.241Z,16.37
2022-08-12T04:58:54.193Z,16.42
2022-08-12T04:59:54.194Z,16.37
2022-08-12T05:00:54.174Z,16.44
2022-08-12T05:01:54.285Z,16.44
2022-08-12T05:02:54.283Z,16.50
2022-08-12T05:03:54.172Z,16.50
2022-08-12T05:04:54.118Z,16.65
2022-08-12T05:05:54.120Z,16.66
2022-08-12T05:06:54.114Z,16.70
2022-08-12T05:07:55.120Z,16.78
2022-08-12T05:08:54.124Z,16.87
2022-08-12T05:10:00.586Z,16.90
2022-08-12T05:10:55.075Z,16.96
2022-08-12T05:11:54.623Z,17.03
2022-08-12T05:12:54.032Z,17.07
2022-08-12T05:13:54.016Z,17.17
2022-08-12T05:14:54.004Z,17.42
2022-08-12T05:16:03.800Z,17.65
2022-08-12T05:16:53.984Z,18.04
2022-08-12T05:17:53.976Z,18.42
2022-08-12T05:18:53.960Z,18.69
2022-08-12T05:19:54.008Z,18.94
2022-08-12T05:20:53.942Z,19.16
2022-08-12T05:21:53.927Z,19.38
2022-08-12T05:22:58.168Z,19.60
2022-08-12T05:23:53.905Z,19.80
2022-08-12T05:24:53.900Z,19.72
2022-08-12T05:25:53.883Z,19.94
2022-08-12T05:26:53.869Z,20.00
2022-08-12T05:27:55.543Z,20.08
2022-08-12T05:28:53.853Z,20.17
2022-08-12T05:30:05.361Z,20.26
2022-08-12T05:30:54.850Z,20.44
2022-08-12T05:31:53.915Z,20.54
2022-08-12T05:32:53.921Z,20.63
2022-08-12T05:33:53.837Z,20.60
2022-08-12T05:34:53.791Z,20.71
2022-08-12T05:35:53.767Z,20.72
2022-08-12T05:36:53.756Z,20.71
2022-08-12T05:37:53.749Z,20.73
2022-08-12T05:38:53.742Z,20.81
2022-08-12T05:39:53.799Z,20.93
2022-08-12T05:40:53.713Z,20.98
2022-08-12T05:41:53.704Z,20.90
2022-08-12T05:42:53.690Z,20.90
2022-08-12T05:43:53.683Z,20.90
2022-08-12T05:44:53.701Z,20.90
2022-08-12T05:45:53.743Z,20.88
2022-08-12T05:46:53.647Z,21.00
2022-08-12T05:47:54.389Z,21.18
2022-08-12T05:48:53.625Z,21.31
2022-08-12T05:49:53.618Z,21.51
2022-08-12T05:50:53.601Z,21.73
2022-08-12T05:51:53.592Z,22.02
2022-08-12T05:52:53.984Z,21.85
2022-08-12T05:53:53.569Z,21.63
2022-08-12T05:54:57.450Z,21.48
2022-08-12T05:55:53.618Z,21.61
2022-08-12T05:56:53.563Z,21.38
2022-08-12T05:57:53.529Z,21.13
2022-08-12T05:58:53.520Z,21.03
2022-08-12T05:59:53.508Z,20.82
2022-08-12T06:00:53.489Z,20.60
2022-08-12T06:02:12.057Z,20.54
2022-08-12T06:02:53.538Z,20.48
2022-08-12T06:03:53.457Z,20.35
2022-08-12T06:04:53.446Z,20.38
2022-08-12T06:05:55.294Z,20.41
2022-08-12T06:06:53.766Z,20.53
2022-08-12T06:08:01.836Z,20.64
2022-08-12T06:08:53.402Z,20.69
2022-08-12T06:09:53.395Z,20.73
2022-08-12T06:10:53.382Z,20.69
2022-08-12T06:12:04.117Z,20.61
2022-08-12T06:12:53.360Z,20.60
2022-08-12T06:13:54.670Z,20.60
2022-08-12T06:14:53.340Z,20.66
2022-08-12T06:15:53.330Z,20.68
2022-08-12T06:16:53.350Z,20.81
2022-08-12T06:17:53.343Z,20.78
2022-08-12T06:18:53.291Z,20.75
2022-08-12T06:20:27.945Z,20.76
2022-08-12T06:20:53.895Z,20.82
2022-08-12T06:21:53.259Z,20.83
2022-08-12T06:22:55.058Z,20.83
2022-08-12T06:23:53.240Z,20.88
2022-08-12T06:24:53.232Z,20.81
2022-08-12T06:25:53.217Z,20.90
2022-08-12T06:26:53.203Z,20.93
2022-08-12T06:28:07.456Z,21.09
2022-08-12T06:28:54.208Z,21.27
2022-08-12T06:30:09.766Z,21.37
2022-08-12T06:31:53.155Z,21.42
2022-08-12T06:33:11.480Z,21.28
2022-08-12T06:33:55.225Z,21.18
2022-08-12T06:35:26.843Z,21.18
2022-08-12T06:35:57.619Z,21.11
2022-08-12T06:36:53.097Z,21.16
2022-08-12T06:37:57.058Z,21.26
2022-08-12T06:38:53.093Z,21.53
2022-08-12T06:39:53.089Z,21.94
2022-08-12T06:40:53.046Z,22.19
2022-08-12T06:42:27.712Z,22.27
2022-08-12T06:42:53.027Z,22.09
2022-08-12T06:44:05.102Z,21.89
2022-08-12T06:44:53.006Z,21.83
2022-08-12T06:45:52.995Z,21.89
2022-08-12T06:46:52.989Z,21.99
2022-08-12T06:47:52.981Z,22.08
2022-08-12T06:48:53.031Z,22.19
2022-08-12T06:49:54.270Z,22.42
2022-08-12T06:50:52.939Z,22.56
2022-08-12T06:51:56.944Z,22.66
2022-08-12T06:52:52.917Z,22.48
2022-08-12T06:53:52.909Z,22.51
2022-08-12T06:54:52.891Z,22.56
2022-08-12T06:55:56.788Z,22.76
2022-08-12T06:58:04.421Z,22.99
2022-08-12T06:58:05.629Z,22.91
2022-08-12T06:58:52.868Z,23.12
2022-08-12T06:59:52.871Z,23.38
2022-08-12T07:00:52.885Z,23.57
2022-08-12T07:01:52.821Z,23.84
2022-08-12T07:02:52.806Z,24.21
2022-08-12T07:03:52.796Z,24.41
2022-08-12T07:04:52.800Z,24.39
2022-08-12T07:05:52.776Z,24.30
2022-08-12T07:06:52.764Z,24.45
2022-08-12T07:07:52.753Z,24.75
2022-08-12T07:08:52.741Z,24.77
2022-08-12T07:10:05.528Z,24.67
2022-08-12T07:10:52.745Z,24.93
2022-08-12T07:11:52.732Z,25.11
2022-08-12T07:12:52.697Z,25.19
2022-08-12T07:14:11.953Z,25.54
2022-08-12T07:14:52.678Z,25.76
2022-08-12T07:15:52.681Z,26.01
2022-08-12T07:16:52.655Z,26.06
2022-08-12T07:17:52.644Z,26.09
2022-08-12T07:18:52.633Z,26.24
2022-08-12T07:19:52.693Z,26.35
2022-08-12T07:20:53.512Z,26.32
2022-08-12T07:21:59.849Z,26.36
2022-08-12T07:22:52.592Z,26.56
2022-08-12T07:23:52.582Z,26.61
2022-08-12T07:24:52.576Z,26.60
2022-08-12T07:25:57.890Z,26.47
2022-08-12T07:26:52.546Z,26.66
2022-08-12T07:27:52.539Z,26.66
2022-08-12T07:28:52.579Z,26.81
2022-08-12T07:30:02.510Z,26.78
2022-08-12T07:30:52.501Z,26.60
2022-08-12T07:31:53.297Z,26.73
2022-08-12T07:32:52.502Z,26.90
2022-08-12T07:33:52.469Z,27.09
2022-08-12T07:34:52.460Z,27.33
2022-08-12T07:35:52.462Z,27.27
2022-08-12T07:36:52.437Z,27.24
2022-08-12T07:37:52.428Z,27.27
2022-08-12T07:38:52.432Z,26.98
2022-08-12T07:39:59.587Z,27.16
2022-08-12T07:40:52.400Z,27.40
2022-08-12T07:41:52.384Z,27.38
2022-08-12T07:42:52.380Z,27.39
2022-08-12T07:43:52.370Z,27.20
2022-08-12T07:44:52.356Z,27.31
2022-08-12T07:45:52.341Z,27.45
2022-08-12T07:46:52.332Z,27.62
2022-08-12T07:47:52.321Z,27.65
2022-08-12T07:48:52.311Z,27.93
2022-08-12T07:50:04.114Z,28.05
2022-08-12T07:50:53.314Z,27.90
2022-08-12T07:51:52.281Z,27.90
2022-08-12T07:52:52.272Z,27.98
2022-08-12T07:54:00.350Z,28.15
2022-08-12T07:54:53.272Z,27.91
2022-08-12T07:55:52.237Z,28.11
2022-08-12T07:56:52.231Z,28.01
2022-08-12T07:57:52.214Z,27.99
2022-08-12T07:58:52.207Z,28.38
2022-08-12T07:59:52.817Z,28.60
2022-08-12T08:00:52.210Z,28.06
2022-08-12T08:01:52.390Z,27.91
2022-08-12T08:02:52.163Z,27.99
2022-08-12T08:03:52.155Z,28.06
2022-08-12T08:04:52.145Z,28.15
2022-08-12T08:05:52.130Z,28.42
2022-08-12T08:06:52.123Z,28.40
2022-08-12T08:07:52.115Z,28.67
2022-08-12T08:08:52.107Z,28.72
2022-08-12T08:09:58.602Z,28.91
2022-08-12T08:10:53.104Z,29.15
2022-08-12T08:11:52.088Z,29.45
2022-08-12T08:12:52.077Z,29.20
2022-08-12T08:13:52.052Z,29.37
2022-08-12T08:14:52.041Z,29.64
2022-08-12T08:16:02.865Z,29.79
2022-08-12T08:16:53.043Z,29.52
2022-08-12T08:17:52.008Z,29.67
2022-08-12T08:18:51.997Z,30.04
2022-08-12T08:20:03.814Z,30.37
2022-08-12T08:20:53.003Z,30.72
2022-08-12T08:21:51.967Z,30.94
2022-08-12T08:22:52.121Z,31.03
2022-08-12T08:23:51.985Z,30.75
2022-08-12T08:24:51.945Z,30.64
2022-08-12T08:25:51.926Z,30.64
2022-08-12T08:26:51.926Z,30.82
2022-08-12T08:27:51.911Z,30.56
2022-08-12T08:28:51.898Z,30.57
2022-08-12T08:29:51.886Z,30.82
2022-08-12T08:30:51.879Z,30.86
2022-08-12T08:31:51.902Z,30.85
2022-08-12T08:32:51.859Z,30.59
2022-08-12T08:34:04.938Z,30.97
2022-08-12T08:34:54.355Z,30.63
2022-08-12T08:35:54.311Z,30.66
2022-08-12T08:36:51.809Z,30.70
2022-08-12T08:37:51.797Z,30.94
2022-08-12T08:38:56.066Z,30.90
2022-08-12T08:39:52.854Z,31.03
2022-08-12T08:40:51.770Z,31.30
2022-08-12T08:42:15.682Z,31.38
2022-08-12T08:42:51.747Z,31.52
2022-08-12T08:43:51.786Z,31.65
2022-08-12T08:44:58.034Z,31.30
2022-08-12T08:45:51.776Z,31.62
2022-08-12T08:46:51.758Z,31.42
2022-08-12T08:47:51.789Z,31.72
2022-08-12T08:48:53.712Z,31.82
2022-08-12T08:49:51.780Z,32.09
2022-08-12T08:51:04.575Z,31.75
2022-08-12T08:51:52.699Z,31.69
2022-08-12T08:52:51.649Z,31.45
2022-08-12T08:53:52.759Z,31.59
2022-08-12T08:54:51.631Z,31.76
2022-08-12T08:56:04.594Z,31.50
2022-08-12T08:56:52.634Z,31.65
2022-08-12T08:57:51.599Z,31.67
2022-08-12T08:58:52.133Z,31.87
2022-08-12T08:59:51.815Z,31.90
2022-08-12T09:00:51.569Z,32.16
2022-08-12T09:01:51.691Z,32.50
2022-08-12T09:02:59.058Z,32.58
2022-08-12T09:05:08.253Z,32.84
2022-08-12T09:05:11.740Z,32.62
2022-08-12T09:06:02.966Z,32.78
2022-08-12T09:06:53.758Z,33.11
2022-08-12T09:08:52.514Z,32.84
2022-08-12T09:10:59.186Z,32.54
2022-08-12T09:12:54.803Z,32.43
2022-08-12T09:14:53.434Z,32.56
2022-08-12T09:15:56.139Z,32.76
2022-08-12T09:16:52.463Z,33.00
2022-08-12T09:17:51.406Z,33.31
2022-08-12T09:18:52.264Z,33.22
2022-08-12T09:19:57.278Z,32.76
2022-08-12T09:20:51.379Z,32.03
2022-08-12T09:21:54.208Z,32.27
2022-08-12T09:22:51.594Z,32.29
2022-08-12T09:23:58.907Z,32.66
2022-08-12T09:24:52.369Z,32.98
2022-08-12T09:25:51.331Z,33.12
2022-08-12T09:26:51.331Z,33.37
2022-08-12T09:28:52.829Z,33.50
2022-08-12T09:30:11.454Z,33.62
2022-08-12T09:30:52.305Z,33.66
2022-08-12T09:32:02.802Z,33.77
2022-08-12T09:33:05.081Z,33.60
2022-08-12T09:34:28.502Z,33.82
2022-08-12T09:34:51.263Z,33.96
2022-08-12T09:36:02.946Z,33.68
2022-08-12T09:37:00.103Z,33.68
2022-08-12T09:37:55.369Z,33.82
2022-08-12T09:39:00.019Z,34.15
2022-08-12T09:40:01.443Z,34.63
2022-08-12T09:40:57.114Z,35.10
2022-08-12T09:42:34.502Z,34.83
2022-08-12T09:43:16.093Z,34.61
2022-08-12T09:43:53.858Z,35.03
2022-08-12T09:45:18.009Z,35.37
2022-08-12T09:46:12.008Z,35.20
2022-08-12T09:46:52.186Z,35.12
2022-08-12T09:47:59.254Z,35.25
2022-08-12T09:48:56.180Z,35.36
2022-08-12T09:49:57.872Z,35.17
2022-08-12T09:50:55.230Z,35.15
2022-08-12T09:51:51.073Z,35.58
2022-08-12T09:52:54.339Z,35.39
2022-08-12T09:54:06.011Z,34.83
2022-08-12T09:54:56.297Z,34.06
2022-08-12T09:56:03.726Z,34.38
2022-08-12T09:57:00.468Z,34.52
2022-08-12T09:58:46.097Z,34.09
2022-08-12T09:59:00.225Z,33.75
2022-08-12T10:00:17.147Z,34.15
2022-08-12T10:00:52.177Z,34.18
2022-08-12T10:02:42.782Z,34.24
2022-08-12T10:02:52.002Z,34.19
2022-08-12T10:04:03.428Z,34.78
2022-08-12T10:04:52.159Z,35.42
2022-08-12T10:06:20.440Z,35.25
2022-08-12T10:06:55.432Z,35.39
2022-08-12T10:07:50.919Z,35.64
2022-08-12T10:08:52.648Z,35.85
2022-08-12T10:09:58.455Z,35.89
2022-08-12T10:10:51.915Z,36.15
2022-08-12T10:12:10.490Z,36.23
2022-08-12T10:13:06.612Z,36.52
2022-08-12T10:13:51.890Z,36.13
2022-08-12T10:14:53.981Z,36.06
2022-08-12T10:16:02.341Z,36.15
2022-08-12T10:16:50.833Z,36.40
2022-08-12T10:17:56.951Z,36.25
2022-08-12T10:18:52.870Z,36.35
2022-08-12T10:19:52.484Z,36.43
2022-08-12T10:20:50.986Z,36.59
2022-08-12T10:21:56.884Z,36.40
2022-08-12T10:22:51.204Z,36.30
2022-08-12T10:23:51.460Z,36.56
2022-08-12T10:24:53.337Z,36.38
2022-08-12T10:26:34.326Z,36.19
2022-08-12T10:26:50.736Z,36.15
2022-08-12T10:28:03.518Z,36.41
2022-08-12T10:29:01.960Z,36.71
2022-08-12T10:30:02.858Z,36.72
2022-08-12T10:30:58.105Z,37.06
2022-08-12T10:32:20.654Z,37.50
2022-08-12T10:32:56.945Z,37.63
2022-08-12T10:34:05.005Z,37.63
2022-08-12T10:34:53.208Z,37.62
2022-08-12T10:35:52.674Z,37.59
2022-08-12T10:36:51.878Z,37.80
2022-08-12T10:38:37.713Z,37.58
2022-08-12T10:38:50.628Z,37.80
2022-08-12T10:40:00.760Z,37.21
2022-08-12T10:40:51.685Z,36.65
2022-08-12T10:41:57.063Z,36.50
2022-08-12T10:42:50.595Z,36.71
2022-08-12T10:43:54.942Z,37.09
2022-08-12T10:44:50.849Z,37.58
2022-08-12T10:45:50.563Z,37.46
2022-08-12T10:46:50.555Z,37.28
2022-08-12T10:48:20.643Z,37.47
2022-08-12T10:48:58.073Z,37.24
2022-08-12T10:50:03.314Z,36.34
2022-08-12T10:51:00.321Z,35.81
2022-08-12T10:52:33.070Z,36.13
2022-08-12T10:52:52.381Z,36.30
2022-08-12T10:53:52.656Z,36.82
2022-08-12T10:54:50.484Z,36.96
2022-08-12T10:55:56.136Z,37.05
2022-08-12T10:56:51.481Z,37.43
2022-08-12T10:58:15.209Z,37.46
2022-08-12T10:58:50.434Z,37.62
2022-08-12T11:00:31.745Z,37.28
2022-08-12T11:01:25.912Z,37.31
2022-08-12T11:04:20.137Z,36.90
2022-08-12T11:04:22.740Z,37.06
2022-08-12T11:04:24.442Z,37.27
2022-08-12T11:04:52.189Z,37.66
2022-08-12T11:07:07.184Z,38.19
2022-08-12T11:07:07.468Z,38.14
2022-08-12T11:08:38.824Z,38.30
2022-08-12T11:08:51.810Z,37.47
2022-08-12T11:10:01.022Z,37.66
2022-08-12T11:10:50.595Z,37.82
2022-08-12T11:12:35.136Z,38.00
2022-08-12T11:12:59.175Z,38.52
2022-08-12T11:13:50.300Z,38.40
2022-08-12T11:14:51.386Z,37.78
2022-08-12T11:16:03.659Z,37.82
2022-08-12T11:17:34.981Z,38.06
2022-08-12T11:17:55.623Z,38.45
2022-08-12T11:18:55.271Z,38.60
2022-08-12T11:19:50.346Z,37.97
2022-08-12T11:20:52.209Z,38.00
2022-08-12T11:21:58.352Z,38.21
2022-08-12T11:22:58.754Z,38.40
2022-08-12T11:23:53.535Z,38.67
2022-08-12T11:24:51.644Z,39.24
2022-08-12T11:25:58.246Z,39.56
2022-08-12T11:26:51.237Z,39.02
2022-08-12T11:27:51.162Z,38.59
2022-08-12T11:28:59.375Z,37.77
2022-08-12T11:30:03.704Z,37.77
2022-08-12T11:30:52.027Z,37.73
2022-08-12T11:32:02.060Z,38.33
2022-08-12T11:32:51.137Z,38.30
2022-08-12T11:34:06.421Z,38.47
2022-08-12T11:34:54.622Z,38.15
2022-08-12T11:35:50.689Z,37.56
2022-08-12T11:36:53.419Z,37.84
2022-08-12T11:37:59.260Z,37.72
2022-08-12T11:38:51.463Z,38.15
2022-08-12T11:40:51.033Z,38.60
2022-08-12T11:41:50.002Z,39.20
2022-08-12T11:42:50.218Z,38.98
2022-08-12T11:43:58.862Z,39.10
2022-08-12T11:44:51.145Z,39.25
2022-08-12T11:45:53.354Z,39.14
2022-08-12T11:46:53.310Z,39.34
2022-08-12T11:47:50.120Z,39.50
2022-08-12T11:48:51.074Z,39.82
2022-08-12T11:49:51.999Z,40.06
2022-08-12T11:50:50.016Z,40.53
2022-08-12T11:51:57.498Z,40.64
2022-08-12T11:52:55.257Z,39.99
2022-08-12T11:53:58.257Z,39.39
2022-08-12T11:54:50.935Z,39.41
2022-08-12T11:55:49.879Z,39.88
2022-08-12T11:56:59.431Z,39.75
2022-08-12T11:58:07.613Z,39.43
2022-08-12T12:01:57.831Z,38.90
2022-08-12T12:02:00.732Z,39.31
2022-08-12T12:02:49.857Z,39.90
2022-08-12T12:03:49.866Z,40.02
2022-08-12T12:04:52.622Z,40.07
2022-08-12T12:05:49.848Z,39.44
2022-08-12T12:06:53.140Z,39.48
2022-08-12T12:08:37.446Z,39.54
2022-08-12T12:08:52.834Z,39.46
2022-08-12T12:09:53.589Z,39.28
2022-08-12T12:10:49.761Z,39.24
2022-08-12T12:11:49.751Z,39.05
2022-08-12T12:12:50.691Z,39.01
2022-08-12T12:14:07.271Z,39.35
2022-08-12T12:14:54.175Z,38.78
2022-08-12T12:15:49.703Z,38.43
2022-08-12T12:16:50.018Z,38.72
2022-08-12T12:17:49.687Z,39.05
2022-08-12T12:18:50.736Z,38.31
2022-08-12T12:19:49.690Z,37.73
2022-08-12T12:20:49.666Z,37.49
2022-08-12T12:21:49.754Z,37.97
2022-08-12T12:22:49.648Z,38.26
2022-08-12T12:23:49.642Z,38.98
2022-08-12T12:24:49.627Z,39.51
2022-08-12T12:26:06.812Z,39.87
2022-08-12T12:26:59.711Z,39.44
2022-08-12T12:28:05.863Z,39.61
2022-08-12T12:28:54.570Z,39.91
2022-08-12T12:30:19.469Z,39.19
2022-08-12T12:30:54.852Z,38.82
2022-08-12T12:32:09.876Z,38.53
2022-08-12T12:32:53.530Z,38.47
2022-08-12T12:33:58.262Z,39.12
2022-08-12T12:35:18.179Z,39.65
2022-08-12T12:36:18.497Z,39.35
2022-08-12T12:36:54.803Z,39.12
2022-08-12T12:38:03.806Z,39.46
2022-08-12T12:38:50.531Z,39.57
2022-08-12T12:39:55.139Z,38.75
2022-08-12T12:40:50.731Z,38.86
2022-08-12T12:42:45.037Z,39.16
2022-08-12T12:42:54.372Z,39.73
2022-08-12T12:44:04.155Z,39.70
2022-08-12T12:44:53.391Z,39.48
2022-08-12T12:45:49.445Z,39.39
2022-08-12T12:46:49.833Z,39.59
2022-08-12T12:47:49.431Z,39.68
2022-08-12T12:48:49.418Z,39.62
2022-08-12T12:49:53.661Z,40.03
2022-08-12T12:50:51.749Z,40.03
2022-08-12T12:52:18.661Z,39.94
2022-08-12T12:52:50.416Z,39.87
2022-08-12T12:54:07.731Z,40.09
2022-08-12T12:54:50.391Z,40.39
2022-08-12T12:55:49.364Z,39.90
2022-08-12T12:56:49.343Z,39.29
2022-08-12T12:57:59.345Z,39.76
2022-08-12T12:58:50.353Z,40.16
2022-08-12T12:59:56.186Z,40.78
2022-08-12T13:00:51.186Z,41.10
2022-08-12T13:01:50.260Z,41.38